createdAt,value
2022-12-13T00:01:48.814Z,99807.81
2022-12-13T00:04:18.068Z,99804.38
2022-12-13T00:06:46.901Z,99805.03
2022-12-13T00:09:16.410Z,99796.34
2022-12-13T00:11:44.800Z,99793.69
2022-12-13T00:14:14.940Z,99797.78
2022-12-13T00:16:46.979Z,99792.53
2022-12-13T00:19:15.821Z,99791.44
2022-12-13T00:21:44.330Z,99785.19
2022-12-13T00:24:13.021Z,99786.66
2022-12-13T00:26:41.470Z,99785.63
2022-12-13T00:29:11.878Z,99787.19
2022-12-13T00:32:00.644Z,99787.84
2022-12-13T00:34:29.628Z,99797.00
2022-12-13T00:36:59.662Z,99796.78
2022-12-13T00:39:28.253Z,99793.19
2022-12-13T00:41:56.621Z,99797.44
2022-12-13T00:44:25.288Z,99789.63
2022-12-13T00:46:55.062Z,99786.94
2022-12-13T00:49:23.509Z,99777.50
2022-12-13T00:51:51.876Z,99784.28
2022-12-13T00:54:20.193Z,99779.03
2022-12-13T00:56:51.100Z,99774.72
2022-12-13T00:59:19.572Z,99782.50
2022-12-13T01:01:48.081Z,99781.59
2022-12-13T01:04:17.944Z,99779.84
2022-12-13T01:06:49.684Z,99786.72
2022-12-13T01:09:21.032Z,99777.16
2022-12-13T01:11:50.371Z,99780.50
2022-12-13T01:14:19.977Z,99782.06
2022-12-13T01:16:48.414Z,99784.59
2022-12-13T01:19:18.297Z,99781.81
2022-12-13T01:21:46.752Z,99779.16
2022-12-13T01:24:15.579Z,99776.44
2022-12-13T01:26:45.152Z,99784.03
2022-12-13T01:29:13.510Z,99786.47
2022-12-13T01:31:42.164Z,99790.56
2022-12-13T01:34:11.630Z,99793.13
2022-12-13T01:36:43.210Z,99791.38
2022-12-13T01:39:14.603Z,99787.00
2022-12-13T01:41:45.135Z,99798.03
2022-12-13T01:44:51.134Z,99802.13
2022-12-13T01:47:21.916Z,99797.81
2022-12-13T01:49:51.012Z,99799.34
2022-12-13T01:52:21.015Z,99798.34
2022-12-13T01:54:53.738Z,99787.88
2022-12-13T01:57:23.889Z,99791.09
2022-12-13T01:59:54.756Z,99793.53
2022-12-13T02:02:23.518Z,99794.31
2022-12-13T02:04:57.977Z,99793.31
2022-12-13T02:07:32.242Z,99794.84
2022-12-13T02:10:04.197Z,99787.84
2022-12-13T02:12:35.306Z,99791.94
2022-12-13T02:15:08.408Z,99790.69
2022-12-13T02:17:48.697Z,99794.69
2022-12-13T02:20:44.343Z,99797.03
2022-12-13T02:23:42.644Z,99796.78
2022-12-13T02:26:44.149Z,99800.91
2022-12-13T02:29:43.518Z,99805.00
2022-12-13T02:32:18.639Z,99806.53
2022-12-13T02:34:52.757Z,99806.41
2022-12-13T02:37:26.360Z,99801.19
2022-12-13T02:40:04.065Z,99799.41
2022-12-13T02:42:38.930Z,99794.94
2022-12-13T02:45:15.720Z,99791.41
2022-12-13T02:47:50.714Z,99781.03
2022-12-13T02:50:20.330Z,99786.03
2022-12-13T02:52:50.115Z,99788.47
2022-12-13T02:55:18.891Z,99786.69
2022-12-13T02:57:48.649Z,99777.09
2022-12-13T03:00:20.332Z,99784.03
2022-12-13T03:03:12.370Z,99781.34
2022-12-13T03:06:06.659Z,99773.53
2022-12-13T03:08:48.836Z,99773.31
2022-12-13T03:11:20.084Z,99772.19
2022-12-13T03:13:53.108Z,99775.50
2022-12-13T03:16:30.149Z,99775.41
2022-12-13T03:19:02.727Z,99773.50
2022-12-13T03:21:42.530Z,99775.03
2022-12-13T03:24:17.318Z,99776.56
2022-12-13T03:26:46.496Z,99777.22
2022-12-13T03:29:14.881Z,99773.66
2022-12-13T03:31:52.954Z,99777.00
2022-12-13T03:34:23.781Z,99769.97
2022-12-13T03:36:52.817Z,99772.31
2022-12-13T03:39:21.560Z,99769.63
2022-12-13T03:41:50.747Z,99770.28
2022-12-13T03:44:19.037Z,99763.50
2022-12-13T03:46:47.428Z,99762.47
2022-12-13T03:49:17.602Z,99761.47
2022-12-13T03:51:47.861Z,99769.78
2022-12-13T03:54:16.400Z,99765.44
2022-12-13T03:56:44.684Z,99767.13
2022-12-13T03:59:13.087Z,99765.22
2022-12-13T04:01:41.463Z,99764.19
2022-12-13T04:04:09.938Z,99765.72
2022-12-13T04:06:38.337Z,99762.16
2022-12-13T04:09:08.051Z,99759.50
2022-12-13T04:11:53.861Z,99758.34
2022-12-13T04:14:23.116Z,99763.47
2022-12-13T04:16:52.484Z,99753.88
2022-12-13T04:19:23.045Z,99758.13
2022-12-13T04:21:54.082Z,99762.34
2022-12-13T04:24:31.372Z,99757.22
2022-12-13T04:27:01.284Z,99762.97
2022-12-13T04:29:33.814Z,99750.97
2022-12-13T04:32:04.565Z,99751.63
2022-12-13T04:34:37.452Z,99750.63
2022-12-13T04:37:06.632Z,99747.16
2022-12-13T04:39:36.378Z,99749.63
2022-12-13T04:42:05.528Z,99740.16
2022-12-13T04:44:37.068Z,99736.72
2022-12-13T04:47:06.463Z,99734.06
2022-12-13T04:49:35.103Z,99733.13
2022-12-13T04:52:03.969Z,99731.38
2022-12-13T04:54:36.685Z,99726.25
2022-12-13T04:57:09.000Z,99731.38
2022-12-13T04:59:37.930Z,99734.66
2022-12-13T05:02:08.314Z,99730.22
2022-12-13T05:04:37.108Z,99738.66
2022-12-13T05:07:05.513Z,99735.22
2022-12-13T05:09:33.891Z,99732.44
2022-12-13T05:12:02.353Z,99727.97
2022-12-13T05:14:32.922Z,99736.50
2022-12-13T05:17:02.087Z,99727.97
2022-12-13T05:19:31.698Z,99739.72
2022-12-13T05:22:02.206Z,99725.94
2022-12-13T05:24:31.989Z,99741.09
2022-12-13T05:27:00.778Z,99725.69
2022-12-13T05:29:29.237Z,99721.22
2022-12-13T05:31:59.037Z,99720.31
2022-12-13T05:34:27.648Z,99716.78
2022-12-13T05:36:55.996Z,99714.09
2022-12-13T05:39:27.895Z,99710.50
2022-12-13T05:42:02.377Z,99712.19
2022-12-13T05:44:32.790Z,99708.75
2022-12-13T05:47:02.963Z,99707.72
2022-12-13T05:49:32.481Z,99706.69
2022-12-13T05:52:01.025Z,99705.69
2022-12-13T05:54:29.406Z,99708.13
2022-12-13T05:56:57.866Z,99708.88
2022-12-13T05:59:26.181Z,99710.56
2022-12-13T06:01:54.580Z,99721.53
2022-12-13T06:04:24.273Z,99717.97
2022-12-13T06:06:53.089Z,99722.03
2022-12-13T06:09:21.990Z,99717.72
2022-12-13T06:11:50.374Z,99715.91
2022-12-13T06:14:21.643Z,99719.25
2022-12-13T06:16:52.538Z,99717.44
2022-12-13T06:19:21.255Z,99720.78
2022-12-13T06:21:51.592Z,99708.03
2022-12-13T06:24:22.609Z,99713.91
2022-12-13T06:26:51.840Z,99720.53
2022-12-13T06:29:25.474Z,99716.09
2022-12-13T06:32:01.188Z,99714.28
2022-12-13T06:34:32.888Z,99706.38
2022-12-13T06:37:06.917Z,99707.16
2022-12-13T06:39:35.975Z,99716.50
2022-12-13T06:42:06.730Z,99711.25
2022-12-13T06:44:36.003Z,99710.22
2022-12-13T06:47:10.211Z,99711.00
2022-12-13T06:49:43.165Z,99720.19
2022-12-13T06:52:14.615Z,99723.47
2022-12-13T06:54:43.300Z,99725.94
2022-12-13T06:57:12.601Z,99731.03
2022-12-13T06:59:41.669Z,99722.34
2022-12-13T07:02:15.426Z,99722.34
2022-12-13T07:04:55.215Z,99721.47
2022-12-13T07:07:26.643Z,99723.88
2022-12-13T07:09:55.334Z,99723.00
2022-12-13T07:12:25.314Z,99727.22
2022-12-13T07:14:54.985Z,99723.00
2022-12-13T07:17:33.338Z,99716.00
2022-12-13T07:20:07.938Z,99718.41
2022-12-13T07:22:46.755Z,99730.25
2022-12-13T07:25:26.841Z,99731.16
2022-12-13T07:28:02.635Z,99743.78
2022-12-13T07:30:33.751Z,99731.16
2022-12-13T07:33:02.963Z,99740.47
2022-12-13T07:35:37.106Z,99733.59
2022-12-13T07:38:08.970Z,99733.59
2022-12-13T07:40:40.481Z,99725.41
2022-12-13T07:43:12.987Z,99729.22
2022-12-13T07:45:41.310Z,99729.75
2022-12-13T07:48:09.838Z,99736.91
2022-12-13T07:50:38.245Z,99741.47
2022-12-13T07:53:09.443Z,99746.94
2022-12-13T07:55:38.615Z,99746.31
2022-12-13T07:58:09.091Z,99745.66
2022-12-13T08:00:38.063Z,99743.25
2022-12-13T08:03:07.260Z,99754.34
2022-12-13T08:05:38.720Z,99758.56
2022-12-13T08:08:11.897Z,99749.97
2022-12-13T08:10:40.598Z,99736.34
2022-12-13T08:13:09.163Z,99736.34
2022-12-13T08:15:37.616Z,99741.44
2022-12-13T08:18:06.483Z,99743.25
2022-12-13T08:20:35.001Z,99746.53
2022-12-13T08:23:03.634Z,99742.31
2022-12-13T08:25:33.621Z,99733.69
2022-12-13T08:28:02.734Z,99739.66
2022-12-13T08:30:33.312Z,99744.00
2022-12-13T08:33:05.070Z,99750.91
2022-12-13T08:35:35.265Z,99746.78
2022-12-13T08:38:04.639Z,99753.69
2022-12-13T08:40:34.948Z,99749.72
2022-12-13T08:43:03.851Z,99747.28
2022-12-13T08:45:34.227Z,99742.44
2022-12-13T08:48:03.557Z,99735.81
2022-12-13T08:50:32.450Z,99737.06
2022-12-13T08:53:01.003Z,99740.00
2022-12-13T08:55:31.503Z,99738.56
2022-12-13T08:58:08.663Z,99745.84
2022-12-13T09:00:38.919Z,99746.19
2022-12-13T09:03:10.128Z,99739.78
2022-12-13T09:05:39.598Z,99753.84
2022-12-13T09:08:23.554Z,99759.41
2022-12-13T09:10:59.423Z,99765.00
2022-12-13T09:13:31.532Z,99768.06
2022-12-13T09:16:05.602Z,99767.63
2022-12-13T09:18:43.314Z,99763.91
2022-12-13T09:21:14.330Z,99762.75
2022-12-13T09:23:51.122Z,99765.88
2022-12-13T09:26:25.524Z,99753.56
2022-12-13T09:28:55.479Z,99744.81
2022-12-13T09:31:24.491Z,99757.31
2022-12-13T09:33:53.142Z,99755.47
2022-12-13T09:36:22.843Z,99755.16
2022-12-13T09:38:53.093Z,99758.41
2022-12-13T09:41:28.872Z,99769.25
2022-12-13T09:44:02.803Z,99762.16
2022-12-13T09:46:44.370Z,99755.94
2022-12-13T09:49:23.224Z,99743.50
2022-12-13T09:52:10.081Z,99746.63
2022-12-13T09:54:48.232Z,99743.63
2022-12-13T09:57:32.241Z,99745.75
2022-12-13T10:00:07.790Z,99749.53
2022-12-13T10:02:45.021Z,99740.66
2022-12-13T10:05:34.260Z,99739.31
2022-12-13T10:08:09.578Z,99744.91
2022-12-13T10:10:38.221Z,99747.78
2022-12-13T10:13:16.193Z,99741.44
2022-12-13T10:15:50.281Z,99735.97
2022-12-13T10:18:27.989Z,99727.84
2022-12-13T10:20:57.342Z,99725.75
2022-12-13T10:23:52.402Z,99718.47
2022-12-13T10:26:24.422Z,99718.94
2022-12-13T10:29:03.930Z,99718.56
2022-12-13T10:31:41.866Z,99710.44
2022-12-13T10:34:22.325Z,99709.19
2022-12-13T10:36:51.110Z,99701.13
2022-12-13T10:39:36.799Z,99696.47
2022-12-13T10:42:07.027Z,99692.63
2022-12-13T10:44:35.657Z,99689.69
2022-12-13T10:47:16.805Z,99694.59
2022-12-13T10:49:59.543Z,99688.19
2022-12-13T10:52:31.923Z,99675.13
2022-12-13T10:55:22.923Z,99671.28
2022-12-13T10:57:53.734Z,99670.91
2022-12-13T11:00:34.855Z,99663.63
2022-12-13T11:03:05.167Z,99663.13
2022-12-13T11:05:35.269Z,99663.56
2022-12-13T11:08:22.427Z,99656.25
2022-12-13T11:10:58.444Z,99651.53
2022-12-13T11:13:34.784Z,99649.34
2022-12-13T11:16:04.043Z,99649.75
2022-12-13T11:18:40.435Z,99645.03
2022-12-13T11:21:10.838Z,99642.06
2022-12-13T11:23:44.399Z,99641.56
2022-12-13T11:26:24.194Z,99639.38
2022-12-13T11:29:09.529Z,99637.22
2022-12-13T11:31:48.932Z,99630.00
2022-12-13T11:34:31.019Z,99638.19
2022-12-13T11:37:08.289Z,99627.41
2022-12-13T11:39:40.710Z,99622.66
2022-12-13T11:42:18.361Z,99617.88
2022-12-13T11:44:59.957Z,99615.72
2022-12-13T11:47:32.691Z,99610.06
2022-12-13T11:50:05.908Z,99611.22
2022-12-13T11:52:40.430Z,99607.13
2022-12-13T11:55:18.389Z,99604.84
2022-12-13T11:57:54.415Z,99605.94
2022-12-13T12:00:35.019Z,99607.88
2022-12-13T12:03:17.527Z,99614.31
2022-12-13T12:05:56.033Z,99607.75
2022-12-13T12:08:33.674Z,99614.16
2022-12-13T12:11:09.451Z,99608.38
2022-12-13T12:13:51.269Z,99610.47
2022-12-13T12:16:32.105Z,99612.41
2022-12-13T12:19:02.028Z,99615.25
2022-12-13T12:24:37.820Z,99603.91
2022-12-13T12:27:25.087Z,99603.28
2022-12-13T12:30:23.281Z,99602.69
2022-12-13T12:33:01.112Z,99599.50
2022-12-13T12:36:05.681Z,99605.88
2022-12-13T12:39:07.281Z,99599.28
2022-12-13T12:41:52.917Z,99590.25
2022-12-13T12:44:35.058Z,99599.13
2022-12-13T12:50:36.474Z,99584.38
2022-12-13T12:53:27.915Z,99577.78
2022-12-13T12:56:08.091Z,99571.22
2022-12-13T12:58:43.877Z,99569.78
2022-12-13T13:01:36.104Z,99575.28
2022-12-13T13:04:22.065Z,99582.38
2022-12-13T13:07:01.441Z,99579.16
2022-12-13T13:09:32.224Z,99577.56
2022-12-13T13:12:28.622Z,99575.94
2022-12-13T13:14:53.872Z,99569.28
2022-12-13T13:17:48.399Z,99571.13
2022-12-13T13:20:23.415Z,99564.28
2022-12-13T13:23:10.292Z,99568.66
2022-12-13T13:28:46.578Z,99569.69
2022-12-13T13:31:15.097Z,99581.75
2022-12-13T13:33:47.191Z,99574.13
2022-12-13T13:36:47.592Z,99563.97
2022-12-13T13:39:17.227Z,99563.97
2022-12-13T13:42:09.965Z,99559.69
2022-12-13T13:45:16.667Z,99570.09
2022-12-13T13:47:59.865Z,99565.78
2022-12-13T13:51:00.548Z,99566.66
2022-12-13T13:54:14.994Z,99571.81
2022-12-13T13:57:12.662Z,99565.78
2022-12-13T14:00:18.655Z,99558.03
2022-12-13T14:03:35.091Z,99561.50
2022-12-13T14:09:15.603Z,99556.19
2022-12-13T14:12:13.350Z,99560.41
2022-12-13T14:15:09.540Z,99552.53
2022-12-13T14:18:13.911Z,99544.63
2022-12-13T14:21:04.622Z,99551.50
2022-12-13T14:23:55.123Z,99548.75
2022-12-13T14:26:39.121Z,99550.41
2022-12-13T14:29:15.522Z,99546.91
2022-12-13T14:31:46.462Z,99549.28
2022-12-13T14:34:23.530Z,99547.44
2022-12-13T14:36:58.647Z,99544.69
2022-12-13T14:39:29.472Z,99534.22
2022-12-13T14:42:04.342Z,99533.25
2022-12-13T14:44:36.474Z,99530.50
2022-12-13T14:47:07.395Z,99536.38
2022-12-13T14:49:39.355Z,99545.59
2022-12-13T14:52:26.109Z,99550.59
2022-12-13T14:54:58.863Z,99545.28
2022-12-13T14:57:30.534Z,99542.59
2022-12-13T15:00:23.005Z,99535.53
2022-12-13T15:02:53.150Z,99526.81
2022-12-13T15:05:28.302Z,99524.09
2022-12-13T15:07:57.885Z,99523.09
2022-12-13T15:10:32.377Z,99522.91
2022-12-13T15:13:02.403Z,99506.41
2022-12-13T15:15:34.058Z,99505.44
2022-12-13T15:18:18.773Z,99504.41
2022-12-13T15:20:50.124Z,99498.97
2022-12-13T15:23:26.448Z,99496.31
2022-12-13T15:26:10.962Z,99496.16
2022-12-13T15:28:43.529Z,99490.84
2022-12-13T15:31:15.113Z,99492.44
2022-12-13T15:33:48.594Z,99499.09
2022-12-13T15:36:21.882Z,99490.41
2022-12-13T15:39:01.426Z,99471.31
2022-12-13T15:41:34.134Z,99476.38
2022-12-13T15:44:09.168Z,99477.88
2022-12-13T15:46:38.867Z,99479.47
2022-12-13T15:49:20.518Z,99475.03
2022-12-13T15:51:58.003Z,99481.72
2022-12-13T15:54:28.849Z,99476.41
2022-12-13T15:57:06.556Z,99474.53
2022-12-13T15:59:38.538Z,99465.84
2022-12-13T16:02:16.745Z,99461.41
2022-12-13T16:04:45.442Z,99462.13
2022-12-13T16:07:26.833Z,99460.34
2022-12-13T16:09:56.631Z,99455.00
2022-12-13T16:12:30.428Z,99451.47
2022-12-13T16:15:28.578Z,99446.16
2022-12-13T16:18:13.730Z,99444.41
2022-12-13T16:20:44.005Z,99437.28
2022-12-13T16:23:26.779Z,99430.38
2022-12-13T16:25:56.856Z,99438.88
2022-12-13T16:28:26.017Z,99430.22
2022-12-13T16:31:15.415Z,99431.00
2022-12-13T16:33:45.891Z,99428.25
2022-12-13T16:36:15.853Z,99435.97
2022-12-13T16:38:45.308Z,99433.22
2022-12-13T16:41:14.740Z,99430.66
2022-12-13T16:43:54.059Z,99434.81
2022-12-13T16:47:14.999Z,99423.44
2022-12-13T16:49:22.041Z,99431.09
2022-12-13T16:51:51.557Z,99430.94
2022-12-13T16:54:22.091Z,99439.41
2022-12-13T16:56:52.213Z,99441.00
2022-12-13T16:59:23.795Z,99437.44
2022-12-13T17:01:55.419Z,99444.22
2022-12-13T17:04:27.476Z,99443.22
2022-12-13T17:06:57.625Z,99440.50
2022-12-13T17:09:26.398Z,99438.69
2022-12-13T17:11:55.385Z,99443.66
2022-12-13T17:14:24.551Z,99441.00
2022-12-13T17:16:54.941Z,99428.84
2022-12-13T17:19:24.409Z,99422.81
2022-12-13T17:21:54.311Z,99433.91
2022-12-13T17:24:24.238Z,99434.63
2022-12-13T17:26:54.375Z,99429.47
2022-12-13T17:29:25.737Z,99431.25
2022-12-13T17:31:56.430Z,99421.78
2022-12-13T17:34:25.293Z,99424.34
2022-12-13T17:36:57.679Z,99422.66
2022-12-13T17:39:27.805Z,99421.78
2022-12-13T17:41:56.550Z,99425.22
2022-12-13T17:44:26.532Z,99427.91
2022-12-13T17:46:58.392Z,99416.81
2022-12-13T17:49:27.853Z,99414.25
2022-12-13T17:51:57.169Z,99416.00
2022-12-13T17:54:27.895Z,99412.66
2022-12-13T17:56:56.847Z,99411.78
2022-12-13T17:59:27.228Z,99411.78
2022-12-13T18:01:58.276Z,99422.13
2022-12-13T18:04:27.486Z,99424.69
2022-12-13T18:06:58.817Z,99426.28
2022-12-13T18:09:28.463Z,99426.28
2022-12-13T18:11:58.085Z,99426.28
2022-12-13T18:14:28.480Z,99428.06
2022-12-13T18:17:00.244Z,99420.25
2022-12-13T18:19:32.188Z,99418.56
2022-12-13T18:22:01.487Z,99418.56
2022-12-13T18:24:30.294Z,99417.63
2022-12-13T18:26:59.603Z,99418.50
2022-12-13T18:29:29.487Z,99419.28
2022-12-13T18:32:00.299Z,99419.19
2022-12-13T18:34:29.331Z,99420.88
2022-12-13T18:36:58.521Z,99423.34
2022-12-13T18:39:28.657Z,99414.78
2022-12-13T18:41:58.060Z,99412.97
2022-12-13T18:44:28.345Z,99401.72
2022-12-13T18:46:57.233Z,99404.22
2022-12-13T18:49:27.673Z,99399.06
2022-12-13T18:51:56.386Z,99407.66
2022-12-13T18:54:25.530Z,99397.28
2022-12-13T18:56:54.323Z,99398.09
2022-12-13T18:59:23.001Z,99391.19
2022-12-13T19:01:52.094Z,99398.91
2022-12-13T19:04:21.635Z,99389.41
2022-12-13T19:06:51.983Z,99392.78
2022-12-13T19:09:23.506Z,99396.13
2022-12-13T19:11:52.379Z,99390.03
2022-12-13T19:14:26.875Z,99392.59
2022-12-13T19:16:56.111Z,99395.94
2022-12-13T19:19:26.427Z,99389.13
2022-12-13T19:21:57.836Z,99394.19
2022-12-13T19:24:27.663Z,99385.50
2022-12-13T19:26:56.686Z,99382.06
2022-12-13T19:29:25.557Z,99381.94
2022-12-13T19:31:56.064Z,99378.50
2022-12-13T19:34:25.021Z,99378.41
2022-12-13T19:36:54.667Z,99372.38
2022-12-13T19:39:26.083Z,99376.63
2022-12-13T19:41:55.251Z,99367.94
2022-12-13T19:44:24.339Z,99364.41
2022-12-13T19:46:53.941Z,99357.50
2022-12-13T19:49:23.747Z,99353.13
2022-12-13T19:51:52.487Z,99347.06
2022-12-13T19:54:22.997Z,99352.19
2022-12-13T19:56:54.042Z,99343.50
2022-12-13T19:59:22.995Z,99339.94
2022-12-13T20:01:51.682Z,99349.34
2022-12-13T20:04:20.240Z,99341.53
2022-12-13T20:06:48.995Z,99334.63
2022-12-13T20:09:17.867Z,99334.63
2022-12-13T20:11:48.051Z,99339.78
2022-12-13T20:14:18.306Z,99331.97
2022-12-13T20:16:48.037Z,99336.22
2022-12-13T20:19:17.326Z,99342.25
2022-12-13T20:21:46.746Z,99342.94
2022-12-13T20:24:15.454Z,99333.47
2022-12-13T20:26:44.338Z,99324.00
2022-12-13T20:29:15.771Z,99321.41
2022-12-13T20:31:48.616Z,99316.22
2022-12-13T20:34:17.867Z,99317.88
2022-12-13T20:36:46.563Z,99308.41
2022-12-13T20:39:15.471Z,99304.06
2022-12-13T20:41:44.074Z,99302.28
2022-12-13T20:44:13.725Z,99306.53
2022-12-13T20:46:42.617Z,99289.44
2022-12-13T20:49:12.745Z,99287.69
2022-12-13T20:51:42.414Z,99277.41
2022-12-13T20:54:11.438Z,99273.25
2022-12-13T20:56:41.579Z,99271.47
2022-12-13T20:59:13.394Z,99264.75
2022-12-13T21:01:43.245Z,99260.44
2022-12-13T21:04:13.888Z,99249.34
2022-12-13T21:06:43.323Z,99243.41
2022-12-13T21:09:13.016Z,99248.53
2022-12-13T21:11:43.588Z,99240.94
2022-12-13T21:14:20.836Z,99245.19
2022-12-13T21:16:51.133Z,99236.66
2022-12-13T21:19:22.657Z,99233.22
2022-12-13T21:21:51.512Z,99226.41
2022-12-13T21:24:21.569Z,99231.53
2022-12-13T21:26:51.201Z,99232.34
2022-12-13T21:29:20.269Z,99221.25
2022-12-13T21:31:50.836Z,99230.66
2022-12-13T21:34:21.606Z,99223.75
2022-12-13T21:36:52.751Z,99219.50
2022-12-13T21:39:24.228Z,99221.19
2022-12-13T21:41:53.992Z,99223.66
2022-12-13T21:44:22.643Z,99222.84
2022-12-13T21:49:42.001Z,99210.00
2022-12-13T21:52:18.046Z,99196.22
2022-12-13T21:54:46.886Z,99193.66
2022-12-13T21:57:32.740Z,99187.53
2022-12-13T22:00:01.305Z,99182.41
2022-12-13T22:02:30.159Z,99181.44
2022-12-13T22:05:00.157Z,99178.75
2022-12-13T22:07:30.354Z,99171.97
2022-12-13T22:10:00.491Z,99175.41
2022-12-13T22:12:33.584Z,99176.28
2022-12-13T22:15:02.552Z,99167.63
2022-12-13T22:17:35.619Z,99171.16
2022-12-13T22:20:08.600Z,99164.34
2022-12-13T22:22:39.986Z,99163.63
2022-12-13T22:25:10.101Z,99162.03
2022-12-13T22:27:38.735Z,99156.09
2022-12-13T22:30:08.924Z,99151.84
2022-12-13T22:32:37.872Z,99157.06
2022-12-13T22:35:09.524Z,99158.84
2022-12-13T22:37:39.753Z,99146.00
2022-12-13T22:40:10.243Z,99152.91
2022-12-13T22:42:39.403Z,99146.94
2022-12-13T22:45:08.778Z,99143.50
2022-12-13T22:47:37.515Z,99141.03
2022-12-13T22:50:09.115Z,99135.91
2022-12-13T22:52:38.457Z,99133.34
2022-12-13T22:55:09.257Z,99143.59
2022-12-13T22:57:37.897Z,99149.53
2022-12-13T23:00:10.172Z,99135.91
2022-12-13T23:02:39.152Z,99133.25
2022-12-13T23:05:10.775Z,99135.91
2022-12-13T23:07:39.510Z,99141.03
2022-12-13T23:10:29.194Z,99126.41
2022-12-13T23:13:02.691Z,99132.34
2022-12-13T23:15:32.194Z,99137.50
2022-12-13T23:18:01.060Z,99120.13
2022-12-13T23:20:31.017Z,99118.38
2022-12-13T23:22:59.946Z,99125.97
2022-12-13T23:25:28.713Z,99123.34
2022-12-13T23:27:57.196Z,99120.69
2022-12-13T23:30:26.016Z,99119.81
2022-12-13T23:32:56.815Z,99123.19
2022-12-13T23:35:25.301Z,99122.28
2022-12-13T23:37:55.310Z,99120.53
2022-12-13T23:40:23.788Z,99123.91
2022-12-13T23:42:52.810Z,99121.22
2022-12-13T23:45:21.688Z,99119.44
2022-12-13T23:47:50.160Z,99116.81
2022-12-13T23:50:18.773Z,99115.94
2022-12-13T23:52:47.342Z,99110.59
2022-12-13T23:55:17.885Z,99106.28
2022-12-13T23:57:46.326Z,99101.97
